Hawaii METAR Reports

 

PHOG - Kahului, Hawaii, USA
Distance from station: WNW 8mi, 13km
Updated: Sun, 21-Oct-2018 6:54pm HST
Partly Cloudy
Partly Cloudy
 Wind from NE
Wind: NE 12 mph , 19 km/h
Temperature: 79°F , 26°C
Dew Point: 73°F , 23°C
Humidity: 84%
Barometer: 29.95 inHg , 1014.2 hPa
Clouds: Partly Cloudy
Visibility: 10 miles , 16 km
Cloud details: Few Clouds 2000 ft
Partly Cloudy 3500 ft
Partly Cloudy 5000 ft
2018/10/22 04:54 PHOG 220454Z 05010KT 10SM FEW020 SCT035 SCT050 26/23 A2995 RMK AO2 SLP146 T02610228
PHJH - Lahaina/West Mau, Hawaii, USA
Distance from station: WNW 24mi, 39km
Updated: Sun, 21-Oct-2018 5:50pm HST
NOT Current
Partly Cloudy
Partly Cloudy
 Wind from NNE
Wind: NNE 12 mph , 19 km/h
Temperature: 77°F , 25°C
Dew Point: 72°F , 22°C
Humidity: 83%
Barometer: 29.93 inHg , 1013.5 hPa
Clouds: Partly Cloudy
Visibility: 15 miles , 24 km
Cloud details: Few Clouds 2500 ft
Partly Cloudy 4000 ft
2018/10/22 03:50 PHJH 220350Z 03010KT 15SM FEW025 SCT040 25/22 A2993 RMK LAST
 
PHNY - Lanai City Airpo, Hawaii, USA
Distance from station: W 40mi, 65km
Updated: Sun, 21-Oct-2018 6:56pm HST
Clear
Clear
 Wind from NE
Wind: NE 17 mph , 28 km/h, Gust: 22 mph , 35 km/h
Temperature: 73°F , 23°C
Dew Point: 68°F , 20°C
Humidity: 83%
Barometer: 29.99 inHg , 1015.6 hPa
Clouds: Clear
Visibility: 10 miles , 16 km
2018/10/22 04:56 PHNY 220456Z AUTO 04015G19KT 10SM CLR 23/20 A2999 RMK AO2 SLP136 T02280200
PHMK - Molokai, Hawaii, USA
Distance from station: WNW 55mi, 88km
Updated: Sun, 21-Oct-2018 7:11pm HST
Few Clouds
Few Clouds
 Wind from NNE
Wind: NNE 13 mph , 20 km/h, Gust: 21 mph , 33 km/h
Temperature: 79°F , 26°C
Dew Point: 72°F , 22°C
Humidity: 79%
Barometer: 29.96 inHg , 1014.6 hPa
Clouds: Few Clouds
Visibility: 10 miles , 16 km
Cloud details: Few Clouds 500 ft
2018/10/22 05:11 PHMK 220511Z AUTO 03011G18KT 10SM FEW005 26/22 A2996 RMK AO2 T02560222 TSNO
 
PHKO - Kailua/Kona, Hawaii, USA
Distance from station: SSE 79mi, 128km
Updated: Sun, 21-Oct-2018 7:33pm HST
Overcast
Overcast
 Wind from NNE
Wind: NNE 5 mph , 7 km/h
Temperature: 81°F , 27°C
Heat Index: 85°F , 29°C
Dew Point: 72°F , 22°C
Humidity: 74%
Barometer: 29.92 inHg , 1013.2 hPa
Clouds: Overcast
Visibility: 10 miles , 16 km
Cloud details: Few Clouds 2300 ft
Mostly Cloudy 2800 ft
Overcast 3600 ft
2018/10/22 05:33 PHKO 220533Z 03004KT 10SM FEW023 BKN028 OVC036 27/22 A2992 RMK AO2 T02670222 $
PHSF - Bradshaw Aaf/Haw, Hawaii, USA
Distance from station: SE 90mi, 145km
Updated: Sun, 21-Oct-2018 6:56pm HST
Few Clouds
Few Clouds
 Wind from SE
Wind: SE 6 mph , 9 km/h
Temperature: 54°F , 12°C
Dew Point: 54°F , 12°C
Humidity: 100%
Barometer: 30.28 inHg , 1025.4 hPa
Clouds: Few Clouds
Visibility: 10 miles , 16 km
Cloud details: Few Clouds 7000 ft
2018/10/22 04:56 PHSF 220456Z AUTO 14005KT 10SM FEW070 12/12 A3028 RMK AO2 SLP157 WND DATA ESTMD T01240119 PWINO $
 
PHNG - Kaneohe Mcas, Hawaii, USA
Distance from station: WNW 102mi, 164km
Updated: Sun, 21-Oct-2018 7:12pm HST
Light rain, Mist, Mostly cloudy
Light rain, Mist, Mostly cloudy
 Wind from NE
Wind: NE 10 mph , 17 km/h, Gust: 16 mph , 26 km/h
Temperature: 79°F , 26°C
Dew Point: 75°F , 24°C
Humidity: 89%
Barometer: 29.94 inHg , 1013.9 hPa
Summary: Light rain, Mist
Clouds: Mostly Cloudy
Visibility: 4 miles , 6 km
Cloud details: Partly Cloudy 1900 ft
Mostly Cloudy 2600 ft
2018/10/22 05:12 PHNG 220512Z 05009G14KT 4SM -RA BR SCT019 BKN026 26/24 A2994 RMK AO2 RAB06 P0001 T02610239 $
PHNL - Honolulu, Hawaii, USA
Distance from station: WNW 108mi, 174km
Updated: Sun, 21-Oct-2018 6:53pm HST
Few Clouds
Few Clouds
 Wind from varies
Wind: varies 3 mph , 6 km/h
Temperature: 81°F , 27°C
Heat Index: 85°F , 29°C
Dew Point: 70°F , 21°C
Humidity: 70%
Barometer: 29.94 inHg , 1013.9 hPa
Clouds: Few Clouds
Visibility: 10 miles , 16 km
Cloud details: Few Clouds 2200 ft
Few Clouds 4500 ft
2018/10/22 04:53 PHNL 220453Z VRB03KT 10SM FEW022 FEW045 27/21 A2994 RMK AO2 SLP140 T02670206 $
 
PHTO - Hilo, Hawaii, USA
Distance from station: SE 114mi, 183km
Updated: Sun, 21-Oct-2018 6:53pm HST
Few Clouds
Few Clouds
 Wind from calm
Wind: Calm
Temperature: 75°F , 24°C
Dew Point: 70°F , 21°C
Humidity: 83%
Barometer: 29.96 inHg , 1014.6 hPa
Clouds: Few Clouds
Visibility: 10 miles , 16 km
Cloud details: Few Clouds 2700 ft
2018/10/22 04:53 PHTO 220453Z 00000KT 10SM FEW027 24/21 A2996 RMK AO2 SLP144 T02440211
PHJR - Kalaeloa, Hawaii, USA
Distance from station: WNW 117mi, 189km
Updated: Sun, 21-Oct-2018 6:53pm HST
Clear
Clear
 Wind from ENE
Wind: ENE 3 mph , 6 km/h
Temperature: 79°F , 26°C
Dew Point: 68°F , 20°C
Humidity: 70%
Barometer: 29.96 inHg , 1014.6 hPa
Clouds: Clear
Visibility: 10 miles , 16 km
2018/10/22 04:53 PHJR 220453Z 06003KT 10SM CLR 26/20 A2996 RMK AO2 SLP150 T02560200
 
PHHI - Wheeler Afb/Oahu, Hawaii, USA
Distance from station: WNW 120mi, 193km
Updated: Sun, 21-Oct-2018 6:56pm HST
Clear
Clear
 Wind from NE
Wind: NE 6 mph , 9 km/h
Temperature: 75°F , 24°C
Dew Point: 70°F , 21°C
Humidity: 83%
Barometer: 29.97 inHg , 1014.9 hPa
Clouds: Clear
Visibility: 10 miles , 16 km
2018/10/22 04:56 PHHI 220456Z AUTO 05005KT 10SM CLR 24/21 A2997 RMK AO2 SLP139 T02430206 $
PHLI - Lihue/Kauai Is, Hawaii, USA
Distance from station: WNW 209mi, 336km
Updated: Sun, 21-Oct-2018 6:53pm HST
Mostly Cloudy
Mostly Cloudy
 Wind from NNE
Wind: NNE 12 mph , 19 km/h
Temperature: 75°F , 24°C
Dew Point: 70°F , 21°C
Humidity: 83%
Barometer: 29.98 inHg , 1015.2 hPa
Clouds: Mostly Cloudy
Visibility: 10 miles , 16 km
Cloud details: Partly Cloudy 1600 ft
Partly Cloudy 2300 ft
Mostly Cloudy 3600 ft
2018/10/22 04:53 PHLI 220453Z 02010KT 10SM SCT016 SCT023 BKN036 24/21 A2998 RMK AO2 SLP150 T02440211 $
 
PHBK - Barking Sands/Ka, Hawaii, USA
Distance from station: WNW 237mi, 382km
Updated: Sun, 21-Oct-2018 6:56pm HST
Clear
Clear
 Wind from W
Wind: W 6 mph , 9 km/h
Temperature: 81°F , 27°C
Heat Index: 85°F , 29°C
Dew Point: 72°F , 22°C
Humidity: 74%
Barometer: 29.95 inHg , 1014.2 hPa
Clouds: Clear
Visibility: 10 miles , 16 km
2018/10/22 04:56 PHBK 220456Z AUTO 27005KT 10SM CLR 27/22 A2995 RMK AO2 SLP143 T02720222